sensor_id;sensor_type;location;lat;lon;timestamp;P1;durP1;ratioP1;P2;durP2;ratioP2
61527;SDS011;47395;42.032;-8.634;2023-08-12T00:01:26;8.85;;;4.13;;
61527;SDS011;47395;42.032;-8.634;2023-08-12T00:03:27;12.88;;;4.05;;
61527;SDS011;47395;42.032;-8.634;2023-08-12T00:05:28;8.73;;;4.22;;
61527;SDS011;47395;42.032;-8.634;2023-08-12T00:07:30;11.07;;;4.43;;
61527;SDS011;47395;42.032;-8.634;2023-08-12T00:09:31;10.95;;;4.55;;
61527;SDS011;47395;42.032;-8.634;2023-08-12T00:11:32;15.60;;;4.82;;
61527;SDS011;47395;42.032;-8.634;2023-08-12T00:13:33;9.18;;;4.00;;
61527;SDS011;47395;42.032;-8.634;2023-08-12T00:15:34;7.50;;;4.18;;
61527;SDS011;47395;42.032;-8.634;2023-08-12T00:17:35;8.05;;;4.40;;
61527;SDS011;47395;42.032;-8.634;2023-08-12T00:19:37;4.82;;;3.47;;
61527;SDS011;47395;42.032;-8.634;2023-08-12T00:21:38;7.65;;;4.00;;
61527;SDS011;47395;42.032;-8.634;2023-08-12T00:23:40;11.02;;;4.70;;
61527;SDS011;47395;42.032;-8.634;2023-08-12T00:25:41;8.10;;;4.50;;
61527;SDS011;47395;42.032;-8.634;2023-08-12T00:27:42;9.68;;;4.13;;
61527;SDS011;47395;42.032;-8.634;2023-08-12T00:29:43;9.57;;;4.55;;
61527;SDS011;47395;42.032;-8.634;2023-08-12T00:31:44;7.13;;;3.70;;
61527;SDS011;47395;42.032;-8.634;2023-08-12T00:33:44;16.10;;;3.90;;
61527;SDS011;47395;42.032;-8.634;2023-08-12T00:35:45;7.88;;;4.78;;
61527;SDS011;47395;42.032;-8.634;2023-08-12T00:37:46;6.75;;;3.50;;
61527;SDS011;47395;42.032;-8.634;2023-08-12T00:39:48;4.95;;;3.25;;
61527;SDS011;47395;42.032;-8.634;2023-08-12T00:41:49;5.30;;;3.60;;
61527;SDS011;47395;42.032;-8.634;2023-08-12T00:43:49;9.05;;;3.10;;
61527;SDS011;47395;42.032;-8.634;2023-08-12T00:45:50;6.72;;;3.17;;
61527;SDS011;47395;42.032;-8.634;2023-08-12T00:47:51;3.10;;;2.50;;
61527;SDS011;47395;42.032;-8.634;2023-08-12T00:49:52;2.92;;;2.10;;
61527;SDS011;47395;42.032;-8.634;2023-08-12T00:51:53;2.45;;;2.35;;
61527;SDS011;47395;42.032;-8.634;2023-08-12T00:53:57;7.35;;;2.80;;
61527;SDS011;47395;42.032;-8.634;2023-08-12T00:55:58;3.88;;;2.60;;
61527;SDS011;47395;42.032;-8.634;2023-08-12T00:57:59;8.15;;;2.70;;
61527;SDS011;47395;42.032;-8.634;2023-08-12T01:00:02;7.07;;;2.53;;
61527;SDS011;47395;42.032;-8.634;2023-08-12T01:02:04;3.42;;;2.47;;
61527;SDS011;47395;42.032;-8.634;2023-08-12T01:04:05;2.25;;;2.00;;
61527;SDS011;47395;42.032;-8.634;2023-08-12T01:06:06;6.22;;;2.33;;
61527;SDS011;47395;42.032;-8.634;2023-08-12T01:08:07;1.85;;;1.75;;
61527;SDS011;47395;42.032;-8.634;2023-08-12T01:10:08;3.42;;;1.63;;
61527;SDS011;47395;42.032;-8.634;2023-08-12T01:12:18;2.72;;;1.70;;
61527;SDS011;47395;42.032;-8.634;2023-08-12T01:14:33;2.00;;;1.35;;
61527;SDS011;47395;42.032;-8.634;2023-08-12T01:17:02;1.95;;;1.65;;
61527;SDS011;47395;42.032;-8.634;2023-08-12T01:19:06;3.05;;;1.35;;
61527;SDS011;47395;42.032;-8.634;2023-08-12T01:21:12;1.30;;;1.20;;
61527;SDS011;47395;42.032;-8.634;2023-08-12T01:23:17;1.17;;;0.98;;
61527;SDS011;47395;42.032;-8.634;2023-08-12T01:25:20;0.70;;;0.70;;
61527;SDS011;47395;42.032;-8.634;2023-08-12T01:27:21;0.40;;;0.40;;
61527;SDS011;47395;42.032;-8.634;2023-08-12T01:29:23;0.40;;;0.40;;
61527;SDS011;47395;42.032;-8.634;2023-08-12T01:31:38;0.40;;;0.40;;
61527;SDS011;47395;42.032;-8.634;2023-08-12T01:33:49;0.40;;;0.40;;
61527;SDS011;47395;42.032;-8.634;2023-08-12T01:36:01;1.05;;;0.38;;
61527;SDS011;47395;42.032;-8.634;2023-08-12T01:38:09;0.40;;;0.40;;
61527;SDS011;47395;42.032;-8.634;2023-08-12T01:40:11;0.40;;;0.40;;
61527;SDS011;47395;42.032;-8.634;2023-08-12T01:42:14;0.30;;;0.30;;
61527;SDS011;47395;42.032;-8.634;2023-08-12T01:44:18;0.35;;;0.35;;
61527;SDS011;47395;42.032;-8.634;2023-08-12T01:46:21;0.30;;;0.30;;
61527;SDS011;47395;42.032;-8.634;2023-08-12T01:48:22;0.30;;;0.30;;
61527;SDS011;47395;42.032;-8.634;2023-08-12T01:50:23;0.30;;;0.30;;
61527;SDS011;47395;42.032;-8.634;2023-08-12T01:52:27;0.30;;;0.30;;
61527;SDS011;47395;42.032;-8.634;2023-08-12T01:54:29;0.30;;;0.30;;
61527;SDS011;47395;42.032;-8.634;2023-08-12T01:56:34;0.30;;;0.30;;
61527;SDS011;47395;42.032;-8.634;2023-08-12T01:58:35;0.30;;;0.30;;
61527;SDS011;47395;42.032;-8.634;2023-08-12T02:00:36;0.35;;;0.30;;
61527;SDS011;47395;42.032;-8.634;2023-08-12T02:02:37;0.32;;;0.32;;
61527;SDS011;47395;42.032;-8.634;2023-08-12T02:04:39;0.40;;;0.40;;
61527;SDS011;47395;42.032;-8.634;2023-08-12T02:06:40;0.40;;;0.40;;
61527;SDS011;47395;42.032;-8.634;2023-08-12T02:08:41;0.30;;;0.30;;
61527;SDS011;47395;42.032;-8.634;2023-08-12T02:10:42;0.30;;;0.30;;
61527;SDS011;47395;42.032;-8.634;2023-08-12T02:12:43;1.55;;;0.40;;
61527;SDS011;47395;42.032;-8.634;2023-08-12T02:14:44;0.63;;;0.40;;
61527;SDS011;47395;42.032;-8.634;2023-08-12T02:16:45;0.30;;;0.30;;
61527;SDS011;47395;42.032;-8.634;2023-08-12T02:18:45;0.40;;;0.40;;
61527;SDS011;47395;42.032;-8.634;2023-08-12T02:20:46;0.40;;;0.40;;
61527;SDS011;47395;42.032;-8.634;2023-08-12T02:22:48;0.60;;;0.60;;
61527;SDS011;47395;42.032;-8.634;2023-08-12T02:24:49;0.45;;;0.45;;
61527;SDS011;47395;42.032;-8.634;2023-08-12T02:26:50;0.40;;;0.40;;
61527;SDS011;47395;42.032;-8.634;2023-08-12T02:28:51;0.63;;;0.60;;
61527;SDS011;47395;42.032;-8.634;2023-08-12T02:30:53;0.60;;;0.60;;
61527;SDS011;47395;42.032;-8.634;2023-08-12T02:32:54;0.40;;;0.40;;
61527;SDS011;47395;42.032;-8.634;2023-08-12T02:34:55;0.85;;;0.50;;
61527;SDS011;47395;42.032;-8.634;2023-08-12T02:36:56;0.50;;;0.50;;
61527;SDS011;47395;42.032;-8.634;2023-08-12T02:38:56;0.40;;;0.40;;
61527;SDS011;47395;42.032;-8.634;2023-08-12T02:40:57;0.50;;;0.50;;
61527;SDS011;47395;42.032;-8.634;2023-08-12T02:42:58;0.40;;;0.40;;
61527;SDS011;47395;42.032;-8.634;2023-08-12T02:44:59;0.77;;;0.40;;
61527;SDS011;47395;42.032;-8.634;2023-08-12T02:47:00;0.40;;;0.40;;
61527;SDS011;47395;42.032;-8.634;2023-08-12T02:49:01;0.40;;;0.40;;
61527;SDS011;47395;42.032;-8.634;2023-08-12T02:51:02;3.20;;;0.40;;
61527;SDS011;47395;42.032;-8.634;2023-08-12T02:53:03;0.38;;;0.38;;
61527;SDS011;47395;42.032;-8.634;2023-08-12T02:55:05;0.40;;;0.40;;
61527;SDS011;47395;42.032;-8.634;2023-08-12T02:57:07;0.35;;;0.35;;
61527;SDS011;47395;42.032;-8.634;2023-08-12T02:59:08;1.10;;;0.40;;
61527;SDS011;47395;42.032;-8.634;2023-08-12T03:01:09;0.70;;;0.70;;
61527;SDS011;47395;42.032;-8.634;2023-08-12T03:03:10;0.40;;;0.40;;
61527;SDS011;47395;42.032;-8.634;2023-08-12T03:05:11;0.57;;;0.40;;
61527;SDS011;47395;42.032;-8.634;2023-08-12T03:07:12;0.50;;;0.50;;
61527;SDS011;47395;42.032;-8.634;2023-08-12T03:09:13;0.90;;;0.40;;
61527;SDS011;47395;42.032;-8.634;2023-08-12T03:11:14;0.40;;;0.40;;
61527;SDS011;47395;42.032;-8.634;2023-08-12T03:13:16;0.50;;;0.50;;
61527;SDS011;47395;42.032;-8.634;2023-08-12T03:15:17;0.40;;;0.40;;
61527;SDS011;47395;42.032;-8.634;2023-08-12T03:17:18;0.40;;;0.40;;
61527;SDS011;47395;42.032;-8.634;2023-08-12T03:19:18;0.30;;;0.30;;
61527;SDS011;47395;42.032;-8.634;2023-08-12T03:21:19;1.45;;;0.40;;
61527;SDS011;47395;42.032;-8.634;2023-08-12T03:23:22;0.73;;;0.52;;
61527;SDS011;47395;42.032;-8.634;2023-08-12T03:25:23;0.63;;;0.40;;
61527;SDS011;47395;42.032;-8.634;2023-08-12T03:27:23;0.50;;;0.50;;
61527;SDS011;47395;42.032;-8.634;2023-08-12T03:29:25;0.30;;;0.30;;
61527;SDS011;47395;42.032;-8.634;2023-08-12T03:31:27;0.57;;;0.40;;
61527;SDS011;47395;42.032;-8.634;2023-08-12T03:33:27;0.40;;;0.40;;
61527;SDS011;47395;42.032;-8.634;2023-08-12T03:35:29;0.45;;;0.45;;
61527;SDS011;47395;42.032;-8.634;2023-08-12T03:37:30;0.50;;;0.50;;
61527;SDS011;47395;42.032;-8.634;2023-08-12T03:39:31;1.20;;;0.70;;
61527;SDS011;47395;42.032;-8.634;2023-08-12T03:41:34;0.60;;;0.60;;
61527;SDS011;47395;42.032;-8.634;2023-08-12T03:43:38;0.73;;;0.73;;
61527;SDS011;47395;42.032;-8.634;2023-08-12T03:45:40;0.70;;;0.70;;
61527;SDS011;47395;42.032;-8.634;2023-08-12T03:47:42;0.80;;;0.80;;
61527;SDS011;47395;42.032;-8.634;2023-08-12T03:49:44;0.77;;;0.77;;
61527;SDS011;47395;42.032;-8.634;2023-08-12T03:51:45;0.80;;;0.80;;
61527;SDS011;47395;42.032;-8.634;2023-08-12T03:53:46;0.70;;;0.70;;
61527;SDS011;47395;42.032;-8.634;2023-08-12T03:55:46;1.45;;;0.70;;
61527;SDS011;47395;42.032;-8.634;2023-08-12T03:57:49;0.55;;;0.55;;
61527;SDS011;47395;42.032;-8.634;2023-08-12T03:59:50;1.10;;;0.80;;
61527;SDS011;47395;42.032;-8.634;2023-08-12T04:04:02;0.80;;;0.80;;
61527;SDS011;47395;42.032;-8.634;2023-08-12T04:06:03;0.52;;;0.52;;
61527;SDS011;47395;42.032;-8.634;2023-08-12T04:08:04;0.70;;;0.70;;
61527;SDS011;47395;42.032;-8.634;2023-08-12T04:10:05;0.70;;;0.70;;
61527;SDS011;47395;42.032;-8.634;2023-08-12T04:12:07;0.80;;;0.80;;
61527;SDS011;47395;42.032;-8.634;2023-08-12T04:14:07;0.75;;;0.75;;
61527;SDS011;47395;42.032;-8.634;2023-08-12T04:16:08;0.65;;;0.65;;
61527;SDS011;47395;42.032;-8.634;2023-08-12T04:18:10;0.50;;;0.50;;
61527;SDS011;47395;42.032;-8.634;2023-08-12T04:20:11;0.63;;;0.63;;
61527;SDS011;47395;42.032;-8.634;2023-08-12T04:22:12;2.45;;;0.60;;
61527;SDS011;47395;42.032;-8.634;2023-08-12T04:24:13;0.50;;;0.50;;
61527;SDS011;47395;42.032;-8.634;2023-08-12T04:26:14;0.60;;;0.60;;
61527;SDS011;47395;42.032;-8.634;2023-08-12T04:28:15;0.47;;;0.40;;
61527;SDS011;47395;42.032;-8.634;2023-08-12T04:30:17;1.65;;;0.70;;
61527;SDS011;47395;42.032;-8.634;2023-08-12T04:32:19;0.50;;;0.50;;
61527;SDS011;47395;42.032;-8.634;2023-08-12T04:34:20;1.83;;;0.50;;
61527;SDS011;47395;42.032;-8.634;2023-08-12T04:36:24;0.75;;;0.75;;
61527;SDS011;47395;42.032;-8.634;2023-08-12T04:38:25;0.50;;;0.50;;
61527;SDS011;47395;42.032;-8.634;2023-08-12T04:40:29;0.50;;;0.50;;
61527;SDS011;47395;42.032;-8.634;2023-08-12T04:42:31;0.40;;;0.40;;
61527;SDS011;47395;42.032;-8.634;2023-08-12T04:44:32;0.60;;;0.60;;
61527;SDS011;47395;42.032;-8.634;2023-08-12T04:46:34;3.05;;;0.65;;
61527;SDS011;47395;42.032;-8.634;2023-08-12T04:48:35;0.50;;;0.50;;
61527;SDS011;47395;42.032;-8.634;2023-08-12T04:50:37;4.50;;;0.50;;
61527;SDS011;47395;42.032;-8.634;2023-08-12T04:52:38;0.43;;;0.43;;
61527;SDS011;47395;42.032;-8.634;2023-08-12T04:54:39;0.40;;;0.40;;
61527;SDS011;47395;42.032;-8.634;2023-08-12T04:56:40;2.30;;;0.52;;
61527;SDS011;47395;42.032;-8.634;2023-08-12T04:58:42;0.45;;;0.45;;
61527;SDS011;47395;42.032;-8.634;2023-08-12T05:00:44;0.63;;;0.63;;
61527;SDS011;47395;42.032;-8.634;2023-08-12T05:02:45;0.90;;;0.50;;
61527;SDS011;47395;42.032;-8.634;2023-08-12T05:04:51;0.63;;;0.63;;
61527;SDS011;47395;42.032;-8.634;2023-08-12T05:06:53;0.45;;;0.45;;
61527;SDS011;47395;42.032;-8.634;2023-08-12T05:08:54;0.68;;;0.50;;
61527;SDS011;47395;42.032;-8.634;2023-08-12T05:10:55;0.57;;;0.50;;
61527;SDS011;47395;42.032;-8.634;2023-08-12T05:12:57;1.40;;;0.60;;
61527;SDS011;47395;42.032;-8.634;2023-08-12T05:15:00;0.75;;;0.52;;
61527;SDS011;47395;42.032;-8.634;2023-08-12T05:17:01;0.50;;;0.50;;
61527;SDS011;47395;42.032;-8.634;2023-08-12T05:19:05;2.55;;;0.55;;
61527;SDS011;47395;42.032;-8.634;2023-08-12T05:21:06;0.50;;;0.50;;
61527;SDS011;47395;42.032;-8.634;2023-08-12T05:23:08;3.30;;;0.52;;
61527;SDS011;47395;42.032;-8.634;2023-08-12T05:25:09;1.00;;;0.40;;
61527;SDS011;47395;42.032;-8.634;2023-08-12T05:27:10;1.83;;;0.47;;
61527;SDS011;47395;42.032;-8.634;2023-08-12T05:29:10;0.63;;;0.60;;
61527;SDS011;47395;42.032;-8.634;2023-08-12T05:31:11;0.60;;;0.60;;
61527;SDS011;47395;42.032;-8.634;2023-08-12T05:33:12;0.60;;;0.60;;
61527;SDS011;47395;42.032;-8.634;2023-08-12T05:35:13;0.70;;;0.70;;
61527;SDS011;47395;42.032;-8.634;2023-08-12T05:37:14;2.55;;;0.85;;
61527;SDS011;47395;42.032;-8.634;2023-08-12T05:39:15;0.77;;;0.77;;
61527;SDS011;47395;42.032;-8.634;2023-08-12T05:41:16;0.57;;;0.57;;
61527;SDS011;47395;42.032;-8.634;2023-08-12T05:43:17;1.95;;;0.70;;
61527;SDS011;47395;42.032;-8.634;2023-08-12T05:45:18;2.33;;;0.75;;
61527;SDS011;47395;42.032;-8.634;2023-08-12T05:47:19;2.65;;;0.60;;
61527;SDS011;47395;42.032;-8.634;2023-08-12T05:49:20;0.70;;;0.70;;
61527;SDS011;47395;42.032;-8.634;2023-08-12T05:51:21;0.75;;;0.75;;
61527;SDS011;47395;42.032;-8.634;2023-08-12T05:53:21;1.13;;;0.70;;
61527;SDS011;47395;42.032;-8.634;2023-08-12T05:55:23;0.90;;;0.90;;
61527;SDS011;47395;42.032;-8.634;2023-08-12T05:57:24;0.73;;;0.73;;
61527;SDS011;47395;42.032;-8.634;2023-08-12T05:59:24;0.80;;;0.80;;
61527;SDS011;47395;42.032;-8.634;2023-08-12T06:01:25;1.73;;;0.75;;
61527;SDS011;47395;42.032;-8.634;2023-08-12T06:03:26;1.13;;;0.93;;
61527;SDS011;47395;42.032;-8.634;2023-08-12T06:05:28;2.13;;;0.98;;
61527;SDS011;47395;42.032;-8.634;2023-08-12T06:07:29;1.88;;;1.10;;
61527;SDS011;47395;42.032;-8.634;2023-08-12T06:09:30;1.15;;;1.10;;
61527;SDS011;47395;42.032;-8.634;2023-08-12T06:11:31;1.25;;;1.10;;
61527;SDS011;47395;42.032;-8.634;2023-08-12T06:13:32;3.75;;;1.27;;
61527;SDS011;47395;42.032;-8.634;2023-08-12T06:15:32;1.33;;;1.10;;
61527;SDS011;47395;42.032;-8.634;2023-08-12T06:17:33;1.00;;;1.00;;
61527;SDS011;47395;42.032;-8.634;2023-08-12T06:19:34;1.00;;;1.00;;
61527;SDS011;47395;42.032;-8.634;2023-08-12T06:21:35;0.90;;;0.90;;
61527;SDS011;47395;42.032;-8.634;2023-08-12T06:23:36;1.13;;;0.90;;
61527;SDS011;47395;42.032;-8.634;2023-08-12T06:25:37;5.10;;;1.05;;
61527;SDS011;47395;42.032;-8.634;2023-08-12T06:27:38;1.27;;;1.17;;
61527;SDS011;47395;42.032;-8.634;2023-08-12T06:29:39;2.53;;;1.00;;
61527;SDS011;47395;42.032;-8.634;2023-08-12T06:31:40;1.73;;;1.10;;
61527;SDS011;47395;42.032;-8.634;2023-08-12T06:33:41;1.95;;;0.90;;
61527;SDS011;47395;42.032;-8.634;2023-08-12T06:35:41;3.63;;;1.08;;
61527;SDS011;47395;42.032;-8.634;2023-08-12T06:37:42;1.00;;;1.00;;
61527;SDS011;47395;42.032;-8.634;2023-08-12T06:39:43;3.50;;;1.13;;
61527;SDS011;47395;42.032;-8.634;2023-08-12T06:41:44;3.28;;;1.38;;
61527;SDS011;47395;42.032;-8.634;2023-08-12T06:43:46;2.88;;;1.35;;
61527;SDS011;47395;42.032;-8.634;2023-08-12T06:45:46;0.98;;;0.98;;
61527;SDS011;47395;42.032;-8.634;2023-08-12T06:47:47;2.45;;;1.00;;
61527;SDS011;47395;42.032;-8.634;2023-08-12T06:49:48;1.83;;;1.17;;
61527;SDS011;47395;42.032;-8.634;2023-08-12T06:51:49;1.60;;;1.20;;
61527;SDS011;47395;42.032;-8.634;2023-08-12T06:53:50;2.03;;;1.17;;
61527;SDS011;47395;42.032;-8.634;2023-08-12T06:55:51;1.25;;;1.08;;
61527;SDS011;47395;42.032;-8.634;2023-08-12T06:57:52;1.40;;;1.10;;
61527;SDS011;47395;42.032;-8.634;2023-08-12T06:59:53;1.20;;;1.10;;
61527;SDS011;47395;42.032;-8.634;2023-08-12T07:01:54;1.15;;;1.10;;
61527;SDS011;47395;42.032;-8.634;2023-08-12T07:03:54;3.10;;;1.20;;
61527;SDS011;47395;42.032;-8.634;2023-08-12T07:05:55;2.03;;;1.40;;
61527;SDS011;47395;42.032;-8.634;2023-08-12T07:07:56;1.23;;;1.10;;
61527;SDS011;47395;42.032;-8.634;2023-08-12T07:09:57;1.70;;;1.05;;
61527;SDS011;47395;42.032;-8.634;2023-08-12T07:11:58;1.77;;;1.13;;
61527;SDS011;47395;42.032;-8.634;2023-08-12T07:13:58;1.30;;;1.20;;
61527;SDS011;47395;42.032;-8.634;2023-08-12T07:16:01;0.80;;;0.80;;
61527;SDS011;47395;42.032;-8.634;2023-08-12T07:18:02;0.90;;;0.90;;
61527;SDS011;47395;42.032;-8.634;2023-08-12T07:20:03;1.27;;;1.17;;
61527;SDS011;47395;42.032;-8.634;2023-08-12T07:22:05;1.40;;;0.98;;
61527;SDS011;47395;42.032;-8.634;2023-08-12T07:24:06;1.38;;;0.98;;
61527;SDS011;47395;42.032;-8.634;2023-08-12T07:26:07;2.72;;;1.10;;
61527;SDS011;47395;42.032;-8.634;2023-08-12T07:28:08;2.05;;;1.13;;
61527;SDS011;47395;42.032;-8.634;2023-08-12T07:30:09;1.52;;;1.20;;
61527;SDS011;47395;42.032;-8.634;2023-08-12T07:32:10;4.00;;;1.58;;
61527;SDS011;47395;42.032;-8.634;2023-08-12T07:34:12;1.80;;;1.50;;
61527;SDS011;47395;42.032;-8.634;2023-08-12T07:36:13;2.58;;;1.50;;
61527;SDS011;47395;42.032;-8.634;2023-08-12T07:38:14;1.40;;;1.30;;
61527;SDS011;47395;42.032;-8.634;2023-08-12T07:40:15;1.98;;;1.25;;
61527;SDS011;47395;42.032;-8.634;2023-08-12T07:42:16;1.10;;;1.10;;
61527;SDS011;47395;42.032;-8.634;2023-08-12T07:44:16;3.63;;;1.30;;
61527;SDS011;47395;42.032;-8.634;2023-08-12T07:46:17;1.70;;;1.10;;
61527;SDS011;47395;42.032;-8.634;2023-08-12T07:48:21;2.28;;;1.45;;
61527;SDS011;47395;42.032;-8.634;2023-08-12T07:50:22;2.08;;;1.48;;
61527;SDS011;47395;42.032;-8.634;2023-08-12T07:52:23;2.33;;;1.33;;
61527;SDS011;47395;42.032;-8.634;2023-08-12T07:54:24;4.72;;;1.38;;
61527;SDS011;47395;42.032;-8.634;2023-08-12T07:56:24;2.50;;;1.40;;
61527;SDS011;47395;42.032;-8.634;2023-08-12T07:58:25;1.38;;;1.27;;
61527;SDS011;47395;42.032;-8.634;2023-08-12T08:00:26;2.00;;;1.30;;
61527;SDS011;47395;42.032;-8.634;2023-08-12T08:02:27;1.35;;;1.25;;
61527;SDS011;47395;42.032;-8.634;2023-08-12T08:04:28;2.05;;;1.45;;
61527;SDS011;47395;42.032;-8.634;2023-08-12T08:06:29;1.40;;;1.30;;
61527;SDS011;47395;42.032;-8.634;2023-08-12T08:08:30;1.98;;;1.00;;
61527;SDS011;47395;42.032;-8.634;2023-08-12T08:10:31;1.02;;;1.02;;
61527;SDS011;47395;42.032;-8.634;2023-08-12T08:12:31;5.07;;;1.10;;
61527;SDS011;47395;42.032;-8.634;2023-08-12T08:14:32;1.65;;;0.80;;
61527;SDS011;47395;42.032;-8.634;2023-08-12T08:16:33;1.50;;;1.38;;
61527;SDS011;47395;42.032;-8.634;2023-08-12T08:18:34;1.40;;;0.90;;
61527;SDS011;47395;42.032;-8.634;2023-08-12T08:20:35;1.65;;;1.17;;
61527;SDS011;47395;42.032;-8.634;2023-08-12T08:22:36;1.25;;;0.90;;
61527;SDS011;47395;42.032;-8.634;2023-08-12T08:24:37;1.23;;;0.80;;
61527;SDS011;47395;42.032;-8.634;2023-08-12T08:26:38;1.25;;;0.73;;
61527;SDS011;47395;42.032;-8.634;2023-08-12T08:28:41;0.60;;;0.60;;
61527;SDS011;47395;42.032;-8.634;2023-08-12T08:30:42;0.65;;;0.65;;
61527;SDS011;47395;42.032;-8.634;2023-08-12T08:32:42;0.88;;;0.68;;
61527;SDS011;47395;42.032;-8.634;2023-08-12T08:34:43;0.88;;;0.70;;
61527;SDS011;47395;42.032;-8.634;2023-08-12T08:36:44;1.58;;;0.57;;
61527;SDS011;47395;42.032;-8.634;2023-08-12T08:38:45;0.85;;;0.55;;
61527;SDS011;47395;42.032;-8.634;2023-08-12T08:40:48;1.17;;;0.70;;
61527;SDS011;47395;42.032;-8.634;2023-08-12T08:42:51;0.90;;;0.80;;
61527;SDS011;47395;42.032;-8.634;2023-08-12T08:44:55;1.48;;;0.90;;
61527;SDS011;47395;42.032;-8.634;2023-08-12T08:47:01;0.90;;;0.90;;
61527;SDS011;47395;42.032;-8.634;2023-08-12T08:49:02;1.00;;;1.00;;
61527;SDS011;47395;42.032;-8.634;2023-08-12T08:51:05;1.48;;;1.13;;
61527;SDS011;47395;42.032;-8.634;2023-08-12T08:53:06;2.58;;;1.00;;
61527;SDS011;47395;42.032;-8.634;2023-08-12T08:55:07;1.48;;;1.05;;
61527;SDS011;47395;42.032;-8.634;2023-08-12T08:57:09;2.72;;;1.27;;
61527;SDS011;47395;42.032;-8.634;2023-08-12T08:59:12;1.95;;;0.85;;
61527;SDS011;47395;42.032;-8.634;2023-08-12T09:01:14;1.27;;;0.90;;
61527;SDS011;47395;42.032;-8.634;2023-08-12T09:03:18;1.33;;;1.00;;
61527;SDS011;47395;42.032;-8.634;2023-08-12T09:05:20;1.90;;;1.50;;
61527;SDS011;47395;42.032;-8.634;2023-08-12T09:07:22;3.63;;;1.45;;
61527;SDS011;47395;42.032;-8.634;2023-08-12T09:09:24;1.98;;;1.58;;
61527;SDS011;47395;42.032;-8.634;2023-08-12T09:11:25;2.55;;;1.30;;
61527;SDS011;47395;42.032;-8.634;2023-08-12T09:13:26;3.00;;;1.38;;
61527;SDS011;47395;42.032;-8.634;2023-08-12T09:15:27;1.48;;;1.38;;
61527;SDS011;47395;42.032;-8.634;2023-08-12T09:17:28;1.70;;;1.60;;
61527;SDS011;47395;42.032;-8.634;2023-08-12T09:19:29;1.40;;;1.30;;
61527;SDS011;47395;42.032;-8.634;2023-08-12T09:21:30;1.70;;;1.55;;
61527;SDS011;47395;42.032;-8.634;2023-08-12T09:23:35;9.65;;;1.55;;
61527;SDS011;47395;42.032;-8.634;2023-08-12T09:25:42;1.55;;;1.40;;
61527;SDS011;47395;42.032;-8.634;2023-08-12T09:27:46;1.40;;;1.13;;
61527;SDS011;47395;42.032;-8.634;2023-08-12T09:29:47;2.15;;;1.10;;
61527;SDS011;47395;42.032;-8.634;2023-08-12T09:31:48;1.58;;;1.40;;
61527;SDS011;47395;42.032;-8.634;2023-08-12T09:33:49;1.70;;;1.30;;
61527;SDS011;47395;42.032;-8.634;2023-08-12T09:35:50;0.90;;;0.90;;
61527;SDS011;47395;42.032;-8.634;2023-08-12T09:37:51;5.05;;;1.40;;
61527;SDS011;47395;42.032;-8.634;2023-08-12T09:39:52;4.05;;;1.48;;
61527;SDS011;47395;42.032;-8.634;2023-08-12T09:41:53;1.50;;;1.30;;
61527;SDS011;47395;42.032;-8.634;2023-08-12T09:43:55;1.55;;;1.25;;
61527;SDS011;47395;42.032;-8.634;2023-08-12T09:45:57;1.63;;;1.23;;
61527;SDS011;47395;42.032;-8.634;2023-08-12T09:48:01;3.22;;;1.20;;
61527;SDS011;47395;42.032;-8.634;2023-08-12T09:50:03;2.35;;;1.33;;
61527;SDS011;47395;42.032;-8.634;2023-08-12T09:52:04;1.30;;;1.20;;
61527;SDS011;47395;42.032;-8.634;2023-08-12T09:54:08;1.20;;;1.10;;
61527;SDS011;47395;42.032;-8.634;2023-08-12T09:56:11;1.88;;;1.02;;
61527;SDS011;47395;42.032;-8.634;2023-08-12T09:58:13;1.67;;;1.40;;
61527;SDS011;47395;42.032;-8.634;2023-08-12T10:00:19;1.63;;;1.10;;
61527;SDS011;47395;42.032;-8.634;2023-08-12T10:02:21;1.33;;;1.00;;
61527;SDS011;47395;42.032;-8.634;2023-08-12T10:04:23;1.42;;;1.30;;
61527;SDS011;47395;42.032;-8.634;2023-08-12T10:06:29;1.40;;;1.08;;
61527;SDS011;47395;42.032;-8.634;2023-08-12T10:08:31;1.75;;;1.30;;
61527;SDS011;47395;42.032;-8.634;2023-08-12T10:10:35;1.40;;;1.27;;
61527;SDS011;47395;42.032;-8.634;2023-08-12T10:12:36;1.20;;;1.10;;
61527;SDS011;47395;42.032;-8.634;2023-08-12T10:14:37;1.70;;;1.00;;
61527;SDS011;47395;42.032;-8.634;2023-08-12T10:16:39;1.90;;;1.33;;
61527;SDS011;47395;42.032;-8.634;2023-08-12T10:18:45;0.70;;;0.70;;
61527;SDS011;47395;42.032;-8.634;2023-08-12T10:20:48;1.80;;;1.27;;
61527;SDS011;47395;42.032;-8.634;2023-08-12T10:22:52;2.85;;;1.10;;
61527;SDS011;47395;42.032;-8.634;2023-08-12T10:24:55;1.48;;;1.20;;
61527;SDS011;47395;42.032;-8.634;2023-08-12T10:26:59;1.35;;;1.05;;
61527;SDS011;47395;42.032;-8.634;2023-08-12T10:29:01;3.88;;;1.08;;
61527;SDS011;47395;42.032;-8.634;2023-08-12T10:31:04;1.45;;;1.00;;
61527;SDS011;47395;42.032;-8.634;2023-08-12T10:33:06;1.15;;;0.93;;
61527;SDS011;47395;42.032;-8.634;2023-08-12T10:35:08;3.78;;;1.20;;
61527;SDS011;47395;42.032;-8.634;2023-08-12T10:37:10;1.25;;;1.15;;
61527;SDS011;47395;42.032;-8.634;2023-08-12T10:39:11;1.05;;;0.95;;
61527;SDS011;47395;42.032;-8.634;2023-08-12T10:41:17;1.10;;;1.02;;
61527;SDS011;47395;42.032;-8.634;2023-08-12T10:43:20;0.90;;;0.90;;
61527;SDS011;47395;42.032;-8.634;2023-08-12T10:45:20;0.98;;;0.80;;
61527;SDS011;47395;42.032;-8.634;2023-08-12T10:47:21;0.75;;;0.75;;
61527;SDS011;47395;42.032;-8.634;2023-08-12T10:49:22;1.05;;;0.95;;
61527;SDS011;47395;42.032;-8.634;2023-08-12T10:53:47;0.88;;;0.70;;
61527;SDS011;47395;42.032;-8.634;2023-08-12T10:55:50;2.03;;;1.23;;
61527;SDS011;47395;42.032;-8.634;2023-08-12T10:57:54;2.80;;;0.98;;
61527;SDS011;47395;42.032;-8.634;2023-08-12T10:59:58;1.38;;;1.27;;
61527;SDS011;47395;42.032;-8.634;2023-08-12T11:02:06;2.47;;;1.42;;
61527;SDS011;47395;42.032;-8.634;2023-08-12T11:04:18;1.40;;;1.30;;
61527;SDS011;47395;42.032;-8.634;2023-08-12T11:06:19;1.73;;;1.35;;
61527;SDS011;47395;42.032;-8.634;2023-08-12T11:08:20;1.45;;;1.27;;
61527;SDS011;47395;42.032;-8.634;2023-08-12T11:10:26;1.63;;;1.10;;
61527;SDS011;47395;42.032;-8.634;2023-08-12T11:12:34;4.00;;;1.38;;
61527;SDS011;47395;42.032;-8.634;2023-08-12T11:14:48;3.85;;;1.25;;
61527;SDS011;47395;42.032;-8.634;2023-08-12T11:16:53;1.60;;;1.17;;
61527;SDS011;47395;42.032;-8.634;2023-08-12T11:18:54;1.88;;;1.20;;
61527;SDS011;47395;42.032;-8.634;2023-08-12T11:20:56;1.95;;;1.27;;
61527;SDS011;47395;42.032;-8.634;2023-08-12T11:22:57;1.40;;;1.30;;
61527;SDS011;47395;42.032;-8.634;2023-08-12T11:25:00;1.40;;;1.30;;
61527;SDS011;47395;42.032;-8.634;2023-08-12T11:27:01;1.42;;;0.88;;
61527;SDS011;47395;42.032;-8.634;2023-08-12T11:29:07;1.40;;;1.30;;
61527;SDS011;47395;42.032;-8.634;2023-08-12T11:31:09;1.40;;;1.30;;
61527;SDS011;47395;42.032;-8.634;2023-08-12T11:33:10;1.88;;;1.38;;
61527;SDS011;47395;42.032;-8.634;2023-08-12T11:35:12;2.55;;;1.35;;
61527;SDS011;47395;42.032;-8.634;2023-08-12T11:37:14;1.45;;;1.35;;
61527;SDS011;47395;42.032;-8.634;2023-08-12T11:39:16;3.90;;;1.48;;
61527;SDS011;47395;42.032;-8.634;2023-08-12T11:41:18;1.75;;;1.63;;
61527;SDS011;47395;42.032;-8.634;2023-08-12T11:43:20;5.95;;;1.90;;
61527;SDS011;47395;42.032;-8.634;2023-08-12T11:45:23;3.58;;;1.80;;
61527;SDS011;47395;42.032;-8.634;2023-08-12T11:47:25;1.70;;;1.60;;
61527;SDS011;47395;42.032;-8.634;2023-08-12T11:49:26;1.80;;;1.70;;
61527;SDS011;47395;42.032;-8.634;2023-08-12T11:51:27;6.80;;;2.67;;
61527;SDS011;47395;42.032;-8.634;2023-08-12T11:53:28;5.97;;;3.00;;
61527;SDS011;47395;42.032;-8.634;2023-08-12T11:55:29;8.50;;;2.85;;
61527;SDS011;47395;42.032;-8.634;2023-08-12T11:57:30;4.88;;;2.92;;
61527;SDS011;47395;42.032;-8.634;2023-08-12T11:59:35;9.27;;;2.78;;
61527;SDS011;47395;42.032;-8.634;2023-08-12T12:01:36;8.52;;;3.20;;
61527;SDS011;47395;42.032;-8.634;2023-08-12T12:03:37;9.75;;;3.92;;
61527;SDS011;47395;42.032;-8.634;2023-08-12T12:05:38;10.85;;;3.85;;
61527;SDS011;47395;42.032;-8.634;2023-08-12T12:07:39;12.40;;;4.03;;